FW7086 Weather Reports


time (UTC)temp
C
wind
direction
speed
KPH
gust
KPH
rain 1hr
cm
rain 24hr
cm
rain mn
cm
humidity
%
barometer
mb
20210518202222 22 129 6.4 9.7 0.00 0.00 0.00 62 1021.7
20210518201718 23 150 6.4 11.3 0.00 0.00 0.00 62 1022.1
20210518201210 23 77 1.6 1.6 0.00 0.00 0.00 61 1021.7
20210518200709 23 140 3.2 8.0 0.00 0.00 0.00 60 1021.7
20210518200208 23 69 3.2 9.7 0.00 0.00 0.00 61 1022.1
20210518195702 23 130 11.3 16.1 0.00 0.00 0.00 62 1022.1
20210518195159 23 123 6.4 8.0 0.00 0.00 0.00 61 1022.5
20210518194655 23 108 4.8 8.0 0.00 0.00 0.00 61 1022.1
20210518194150 23 139 3.2 3.2 0.00 0.00 0.00 61 1022.1
20210518193646 23 78 4.8 11.3 0.00 0.00 0.00 61 1022.1
20210518193139 23 91 4.8 4.8 0.00 0.00 0.00 60 1022.5
20210518192637 23 108 3.2 3.2 0.00 0.00 0.00 61 1022.5
20210518192129 23 156 16.1 22.5 0.00 0.00 0.00 60 1022.1
20210518191626 23 115 17.7 22.5 0.00 0.00 0.00 60 1022.5
20210518191125 23 64 3.2 4.8 0.00 0.00 0.00 59 1022.1
20210518190622 23 156 11.3 14.5 0.00 0.00 0.00 60 1022.5
20210518190118 23 89 1.6 3.2 0.00 0.00 0.00 60 1022.1
20210518185615 23 89 9.7 14.5 0.00 0.00 0.00 60 1022.5
20210518185112 23 90 6.4 11.3 0.00 0.00 0.00 61 1022.1
20210518184606 23 142 12.9 14.5 0.00 0.00 0.00 59 1022.5
20210518184102 23 78 4.8 9.7 0.00 0.00 0.00 59 1022.1
20210518183601 23 95 1.6 1.6 0.00 0.00 0.00 59 1022.5
20210518183100 23 123 14.5 17.7 0.00 0.00 0.00 57 1022.5
20210518182558 23 150 4.8 9.7 0.00 0.00 0.00 58 1022.5
20210518182051 23 68 3.2 3.2 0.00 0.00 0.00 58 1022.5
20210518181550 23 99 3.2 8.0 0.00 0.00 0.00 58 1022.5
20210518181045 23 151 4.8 4.8 0.00 0.00 0.00 57 1022.5
20210518180541 23 137 4.8 9.7 0.00 0.00 0.00 57 1022.5
20210518180038 23 108 3.2 3.2 0.00 0.00 0.00 58 1022.5
20210518175536 23 90 1.6 3.2 0.00 0.00 0.00 57 1022.8
20210518175030 23 163 4.8 4.8 0.00 0.00 0.00 57 1022.5
20210518174526 23 121 8.0 11.3 0.00 0.00 0.00 57 1022.5
20210518174023 23 83 0.0 0.0 0.00 0.00 0.00 57 1022.8
20210518173521 23 119 1.6 3.2 0.00 0.00 0.00 56 1022.5
20210518173016 23 142 3.2 8.0 0.00 0.00 0.00 58 1022.8
20210518172509 23 113 0.0 1.6 0.00 0.00 0.00 58 1022.5
20210518172003 23 93 1.6 3.2 0.00 0.00 0.00 58 1022.8
20210518171501 23 146 9.7 14.5 0.00 0.00 0.00 57 1022.8
20210518170959 23 139 6.4 9.7 0.00 0.00 0.00 59 1022.8
20210518170455 22 141 8.0 11.3 0.00 0.00 0.00 60 1022.8
20210518165950 23 135 4.8 11.3 0.00 0.00 0.00 59 1022.8
20210518165449 23 90 4.8 4.8 0.00 0.00 0.00 60 1023.1
20210518164943 23 31 3.2 4.8 0.00 0.00 0.00 60 1023.1
20210518164439 23 126 3.2 3.2 0.00 0.00 0.00 60 1022.8
20210518163939 23 141 4.8 8.0 0.00 0.00 0.00 60 1023.1
20210518163434 23 85 0.0 1.6 0.00 0.00 0.00 61 1022.8
20210518162929 23 98 4.8 4.8 0.00 0.00 0.00 60 1023.1
20210518162428 22 88 3.2 3.2 0.00 0.00 0.00 61 1023.1
20210518161928 22 81 1.6 1.6 0.00 0.00 0.00 61 1023.1
20210518161427 22 145 6.4 9.7 0.00 0.00 0.00 61 1023.1
20210518160923 22 140 3.2 4.8 0.00 0.00 0.00 61 1023.1
20210518160418 22 105 3.2 4.8 0.00 0.00 0.00 62 1022.8
20210518155911 22 58 3.2 3.2 0.00 0.00 0.00 63 1022.8
20210518155411 22 113 1.6 1.6 0.00 0.00 0.00 63 1023.1
20210518154905 22 91 8.0 11.3 0.00 0.00 0.00 64 1022.8
20210518154402 22 131 1.6 3.2 0.00 0.00 0.00 64 1023.1
20210518153857 22 116 1.6 3.2 0.00 0.00 0.00 64 1023.1
20210518153354 21 140 4.8 8.0 0.00 0.00 0.00 65 1023.1
20210518152850 21 142 3.2 4.8 0.00 0.00 0.00 67 1023.1
20210518152348 21 81 0.0 0.0 0.00 0.00 0.00 69 1023.1
20210518151843 20 186 4.8 4.8 0.00 0.00 0.00 70 1023.1
20210518151339 20 140 3.2 8.0 0.00 0.00 0.00 71 1023.1
20210518150833 20 140 4.8 8.0 0.00 0.00 0.00 70 1023.1
20210518150328 20 113 6.4 9.7 0.00 0.00 0.00 71 1023.5
20210518145823 20 97 6.4 9.7 0.00 0.00 0.00 71 1023.1
20210518145322 20 68 3.2 4.8 0.00 0.00 0.00 72 1023.5
20210518144818 20 39 3.2 3.2 0.00 0.00 0.00 72 1023.5
20210518144315 20 45 4.8 8.0 0.00 0.00 0.00 73 1023.5
20210518143808 19 67 3.2 3.2 0.00 0.00 0.00 74 1023.5
20210518143306 18 55 1.6 1.6 0.00 0.00 0.00 75 1023.5
20210518142806 18 146 4.8 8.0 0.00 0.00 0.00 76 1023.8
20210518142300 18 91 1.6 1.6 0.00 0.00 0.00 77 1023.5
20210518141756 18 73 4.8 8.0 0.00 0.00 0.00 77 1023.1
20210518141253 18 80 0.0 0.0 0.00 0.00 0.00 78 1023.5
20210518140747 17 68 4.8 4.8 0.00 0.00 0.00 78 1023.5
20210518140241 18 64 3.2 3.2 0.00 0.00 0.00 78 1023.5
20210518135740 17 84 6.4 8.0 0.00 0.00 0.00 78 1023.5
20210518135237 17 64 0.0 1.6 0.00 0.00 0.00 79 1023.5
20210518134734 17 71 3.2 4.8 0.00 0.00 0.00 79 1023.1
20210518134224 17 43 4.8 4.8 0.00 0.00 0.00 79 1023.1
20210518133716 17 58 3.2 3.2 0.00 0.00 0.00 79 1023.5
20210518133215 17 29 3.2 3.2 0.00 0.00 0.00 79 1023.1
20210518132711 17 63 3.2 3.2 0.00 0.00 0.00 80 1023.1
20210518132207 17 54 1.6 3.2 0.00 0.00 0.00 80 1023.1
20210518131707 17 53 1.6 4.8 0.00 0.00 0.00 80 1023.5
20210518131205 17 42 4.8 8.0 0.00 0.00 0.00 80 1023.5
20210518130652 17 109 1.6 1.6 0.00 0.00 0.00 81 1023.5
20210518130151 16 71 0.0 0.0 0.00 0.00 0.00 82 1023.5
20210518125646 16 78 1.6 4.8 0.00 0.00 0.00 82 1023.5
20210518125146 16 137 1.6 1.6 0.00 0.00 0.00 82 1023.5
20210518124643 16 72 1.6 3.2 0.00 0.00 0.00 83 1023.5
20210518124139 16 81 3.2 3.2 0.00 0.00 0.00 83 1023.1
20210518123631 16 104 1.6 1.6 0.00 0.00 0.00 83 1023.1
20210518123128 16 72 6.4 9.7 0.00 0.00 0.00 83 1023.5
20210518122627 16 97 3.2 3.2 0.00 0.00 0.00 83 1023.5
20210518122127 16 65 0.0 0.0 0.00 0.00 0.00 83 1023.5
20210518121627 16 75 0.0 0.0 0.00 0.00 0.00 84 1023.5
20210518121123 16 55 1.6 1.6 0.00 0.00 0.00 84 1023.5
20210518120618 16 56 3.2 4.8 0.00 0.00 0.00 84 1023.1
20210518120112 16 52 1.6 1.6 0.00 0.00 0.00 85 1023.1
20210518115605 16 62 3.2 3.2 0.00 0.00 0.00 85 1023.1
20210518115101 15 85 3.2 4.8 0.00 0.00 0.00 86 1023.1
20210518114601 15 63 1.6 1.6 0.00 0.00 0.00 86 1023.1
20210518114058 15 52 3.2 3.2 0.00 0.00 0.00 86 1023.1
20210518113551 15 81 3.2 3.2 0.00 0.00 0.00 87 1023.1
20210518113047 15 48 1.6 3.2 0.00 0.00 0.00 87 1023.1
20210518112546 15 34 4.8 4.8 0.00 0.00 0.00 87 1023.1
20210518112045 15 55 8.0 9.7 0.00 0.00 0.00 87 1023.1
20210518111541 15 81 1.6 3.2 0.00 0.00 0.00 87 1023.1
20210518111035 15 81 1.6 1.6 0.00 0.00 0.00 87 1023.1
20210518110532 15 70 6.4 12.9 0.00 0.00 0.00 87 1023.1
20210518110026 15 49 3.2 3.2 0.00 0.00 0.00 87 1023.1
20210518105526 15 85 1.6 1.6 0.00 0.00 0.00 87 1022.8
20210518105022 15 61 1.6 3.2 0.00 0.00 0.00 88 1022.8
20210518104517 15 82 3.2 3.2 0.00 0.00 0.00 88 1022.8
20210518104011 15 85 1.6 1.6 0.00 0.00 0.00 88 1022.8
20210518103509 15 68 0.0 0.0 0.00 0.00 0.00 89 1023.1
20210518103003 15 41 4.8 4.8 0.00 0.00 0.00 89 1023.1
20210518102456 15 69 0.0 1.6 0.00 0.00 0.00 89 1022.5
20210518101952 15 70 0.0 0.0 0.00 0.00 0.00 89 1022.8
20210518101450 15 53 1.6 3.2 0.00 0.00 0.00 88 1022.5
20210518100947 15 71 0.0 0.0 0.00 0.00 0.00 88 1022.5
20210518100442 15 71 0.0 0.0 0.00 0.00 0.00 88 1022.8
20210518095937 15 61 0.0 1.6 0.00 0.00 0.00 88 1022.8
20210518095432 15 60 1.6 1.6 0.00 0.00 0.00 88 1022.8
20210518094932 15 66 1.6 3.2 0.00 0.00 0.00 88 1022.8
20210518094427 15 57 1.6 3.2 0.00 0.00 0.00 88 1022.8
20210518093923 15 76 3.2 3.2 0.00 0.00 0.00 88 1022.8
20210518093417 15 71 0.0 0.0 0.00 0.00 0.00 88 1022.8
20210518092915 15 83 0.0 0.0 0.00 0.00 0.00 88 1022.8
20210518092411 15 62 0.0 0.0 0.00 0.00 0.00 88 1022.8
20210518091909 15 51 0.0 1.6 0.00 0.00 0.00 88 1022.5
20210518091404 15 68 3.2 3.2 0.00 0.00 0.00 89 1022.8
20210518090901 15 69 0.0 0.0 0.00 0.00 0.00 89 1022.8
20210518090356 15 57 1.6 1.6 0.00 0.00 0.00 89 1022.8
20210518085852 15 72 0.0 0.0 0.00 0.00 0.00 89 1022.8
20210518085346 15 73 1.6 3.2 0.00 0.00 0.00 89 1022.8
20210518084843 14 63 0.0 0.0 0.00 0.00 0.00 89 1022.8
20210518084339 14 69 0.0 0.0 0.00 0.00 0.00 89 1022.8
20210518083838 14 79 0.0 0.0 0.00 0.00 0.00 89 1022.8
20210518083337 14 68 0.0 0.0 0.00 0.00 0.00 89 1022.8
20210518082832 14 57 1.6 1.6 0.00 0.00 0.00 89 1022.5
20210518082325 14 77 1.6 3.2 0.00 0.00 0.00 89 1022.8
20210518081818 14 74 1.6 1.6 0.00 0.00 0.00 89 1022.8
20210518081317 14 56 1.6 3.2 0.00 0.00 0.00 88 1022.8
20210518080815 14 66 0.0 1.6 0.00 0.00 0.00 88 1022.5
20210518080309 14 70 0.0 0.0 0.00 0.00 0.00 88 1022.5
20210518075804 15 56 1.6 1.6 0.00 0.00 0.00 88 1022.5
20210518075305 15 72 3.2 3.2 0.00 0.00 0.00 88 1022.8
20210518074759 15 68 1.6 1.6 0.00 0.00 0.00 88 1022.8
20210518074254 15 76 0.0 0.0 0.00 0.00 0.00 88 1022.8
20210518073750 15 70 1.6 1.6 0.00 0.00 0.00 88 1022.5
20210518073247 15 66 1.6 1.6 0.00 0.00 0.00 88 1022.5
20210518072741 15 72 1.6 1.6 0.00 0.00 0.00 88 1022.5
20210518072239 15 67 0.0 0.0 0.00 0.00 0.00 88 1022.5
20210518071733 15 76 1.6 1.6 0.00 0.00 0.00 87 1022.5
20210518071227 15 58 3.2 4.8 0.00 0.00 0.00 87 1022.1
20210518070723 15 69 0.0 0.0 0.00 0.00 0.00 87 1022.5
20210518070220 15 63 3.2 3.2 0.00 0.00 0.00 87 1022.5
20210518065715 15 63 1.6 1.6 0.00 0.00 0.00 87 1022.5
20210518065212 15 83 0.0 1.6 0.00 0.00 0.00 87 1022.5
20210518064712 15 70 0.0 0.0 0.00 0.00 0.00 86 1022.5
20210518064207 15 66 3.2 3.2 0.00 0.00 0.00 86 1022.8
20210518063702 15 69 0.0 1.6 0.00 0.00 0.00 86 1022.8
20210518063202 15 77 0.0 1.6 0.00 0.00 0.00 86 1022.5
20210518062653 15 74 0.0 1.6 0.00 0.00 0.00 85 1022.8
20210518062150 15 64 1.6 1.6 0.00 0.00 0.00 85 1022.8
20210518061649 15 74 0.0 0.0 0.00 0.00 0.00 85 1022.5
20210518061150 15 71 0.0 3.2 0.00 0.00 0.00 85 1022.5
20210518060647 15 80 0.0 0.0 0.00 0.00 0.00 85 1022.8
20210518060145 15 57 0.0 1.6 0.00 0.00 0.00 85 1022.8
20210518055642 15 89 1.6 3.2 0.00 0.00 0.00 85 1022.8
20210518055127 15 58 1.6 1.6 0.00 0.00 0.00 85 1022.5
20210518054623 15 91 1.6 3.2 0.00 0.00 0.00 85 1022.5
20210518054121 15 75 1.6 1.6 0.00 0.00 0.00 85 1022.5
20210518053614 15 78 0.0 0.0 0.00 0.00 0.00 85 1022.5
20210518053107 15 64 3.2 8.0 0.00 0.00 0.00 85 1022.8
20210518052601 15 70 0.0 0.0 0.00 0.00 0.00 85 1022.5
20210518052100 15 79 1.6 1.6 0.00 0.00 0.00 84 1022.5
20210518051554 15 93 1.6 1.6 0.00 0.00 0.00 84 1022.5
20210518051051 15 75 1.6 1.6 0.00 0.00 0.00 84 1022.5
20210518050549 15 82 3.2 4.8 0.00 0.00 0.00 84 1022.5
20210518050042 15 69 3.2 8.0 0.00 0.00 0.00 83 1022.5
20210518045541 15 54 8.0 8.0 0.00 0.00 0.00 83 1022.5
20210518045032 15 89 1.6 1.6 0.00 0.00 0.00 83 1022.5
20210518044531 15 63 4.8 4.8 0.00 0.00 0.00 83 1022.8
20210518044029 15 62 1.6 3.2 0.00 0.00 0.00 83 1022.8
20210518043523 15 48 1.6 3.2 0.00 0.00 0.00 82 1022.5
20210518043021 15 71 0.0 1.6 0.00 0.00 0.00 82 1022.5
20210518042520 15 68 1.6 1.6 0.00 0.00 0.00 82 1022.8
20210518042020 15 76 0.0 1.6 0.00 0.00 0.00 81 1022.8
20210518041515 15 63 1.6 1.6 0.00 0.00 0.00 81 1022.8
20210518041010 15 59 0.0 1.6 0.00 0.00 0.00 81 1022.8
20210518040509 15 30 4.8 4.8 0.00 0.00 0.00 81 1022.8
20210518040005 15 50 6.4 9.7 0.00 0.00 0.00 81 1023.1
20210518035501 15 78 0.0 0.0 0.00 0.00 0.00 81 1023.1
20210518034958 15 58 1.6 1.6 0.00 0.00 0.00 80 1022.8
20210518034458 15 53 1.6 3.2 0.00 0.00 0.00 81 1022.8
20210518033952 15 73 0.0 1.6 0.00 0.00 0.00 80 1023.1
20210518033448 15 76 0.0 0.0 0.00 0.00 0.00 79 1023.1
20210518032946 15 81 1.6 1.6 0.00 0.00 0.00 79 1023.1
20210518032442 15 76 3.2 4.8 0.00 0.00 0.00 79 1023.1
20210518031938 15 79 1.6 1.6 0.00 0.00 0.00 79 1023.1
20210518031437 15 96 1.6 3.2 0.00 0.00 0.00 79 1023.1
20210518030929 15 61 0.0 1.6 0.00 0.00 0.00 79 1022.8
20210518030425 15 68 3.2 3.2 0.00 0.00 0.00 79 1023.1
20210518025922 15 79 1.6 1.6 0.00 0.00 0.00 79 1023.1
20210518025415 15 55 1.6 1.6 0.00 0.00 0.00 79 1023.1
20210518024915 15 77 0.0 0.0 0.00 0.00 0.00 78 1023.1
20210518024414 15 66 1.6 1.6 0.00 0.00 0.00 78 1022.8
20210518023909 15 73 0.0 0.0 0.00 0.00 0.00 77 1022.8
20210518023403 15 35 1.6 1.6 0.00 0.00 0.00 77 1022.8
20210518022901 15 73 3.2 3.2 0.00 0.00 0.00 77 1022.8
20210518022400 15 83 4.8 4.8 0.00 0.00 0.00 77 1022.8
20210518021855 16 61 1.6 1.6 0.00 0.00 0.00 76 1022.8
20210518021354 16 60 6.4 8.0 0.00 0.00 0.00 76 1022.8
20210518020851 16 51 1.6 3.2 0.00 0.00 0.00 75 1022.8
20210518020347 16 49 4.8 8.0 0.00 0.00 0.00 75 1022.5
20210518015844 16 44 3.2 3.2 0.00 0.00 0.00 74 1022.5
20210518015339 16 61 6.4 9.7 0.00 0.00 0.00 74 1022.5
20210518014837 16 59 3.2 3.2 0.00 0.00 0.00 74 1022.5
20210518014328 16 52 3.2 8.0 0.00 0.00 0.00 74 1022.1
20210518013823 16 59 0.0 1.6 0.00 0.00 0.00 73 1022.1
20210518013319 16 88 3.2 3.2 0.00 0.00 0.00 73 1022.1
20210518012815 16 86 0.0 1.6 0.00 0.00 0.00 73 1022.1
20210518012311 17 60 1.6 1.6 0.00 0.00 0.00 73 1022.1
20210518011807 17 56 3.2 4.8 0.00 0.00 0.00 72 1021.7
20210518011259 17 54 6.4 8.0 0.00 0.00 0.00 72 1021.7
20210518010749 17 68 4.8 4.8 0.00 0.00 0.00 71 1022.1
20210518010246 17 59 3.2 4.8 0.00 0.00 0.00 71 1021.7
20210518005746 17 71 1.6 3.2 0.00 0.00 0.00 71 1021.7
20210518005241 17 47 0.0 3.2 0.00 0.00 0.00 71 1021.7
20210518004741 18 89 3.2 3.2 0.00 0.00 0.00 70 1021.7
20210518004239 18 89 1.6 1.6 0.00 0.00 0.00 70 1021.7
20210518003735 18 60 3.2 3.2 0.00 0.00 0.00 69 1021.7
20210518003234 18 48 8.0 11.3 0.00 0.00 0.00 69 1021.7
20210518002731 18 80 0.0 0.0 0.00 0.00 0.00 69 1021.7
20210518002225 19 68 6.4 11.3 0.00 0.00 0.00 68 1021.7
20210518001718 19 74 1.6 3.2 0.00 0.00 0.00 67 1022.1
20210518001216 19 54 1.6 3.2 0.00 0.00 0.00 67 1021.7
20210518000712 20 97 4.8 4.8 0.00 0.00 0.00 66 1021.7
20210518000211 20 81 1.6 3.2 0.00 0.00 0.00 66 1021.7
20210517235708 20 139 3.2 4.8 0.00 0.00 0.00 66 1021.7
20210517235204 20 103 1.6 3.2 0.00 0.00 0.00 66 1021.7
20210517234701 20 60 4.8 4.8 0.00 0.00 0.00 66 1021.7
20210517234155 19 77 0.0 0.0 0.00 0.00 0.00 67 1021.7
20210517233654 19 65 3.2 4.8 0.00 0.00 0.00 67 1021.3
20210517233150 20 55 4.8 8.0 0.00 0.00 0.00 67 1021.7
20210517232647 20 83 4.8 9.7 0.00 0.00 0.00 66 1022.1
20210517232143 20 78 0.0 0.0 0.00 0.00 0.00 67 1021.7
20210517231640 20 59 3.2 4.8 0.00 0.00 0.00 67 1022.1
20210517231137 20 63 4.8 4.8 0.00 0.00 0.00 66 1021.7
20210517230632 20 77 0.0 0.0 0.00 0.00 0.00 67 1022.1
20210517230131 19 122 1.6 3.2 0.00 0.00 0.00 67 1022.1
20210517225628 19 74 1.6 3.2 0.00 0.00 0.00 67 1022.1
20210517225125 20 69 3.2 3.2 0.00 0.00 0.00 67 1022.1
20210517224618 20 77 0.0 0.0 0.00 0.00 0.00 66 1022.1
20210517224113 20 85 0.0 0.0 0.00 0.00 0.00 66 1022.1
20210517223612 20 58 3.2 4.8 0.00 0.00 0.00 66 1022.1
20210517223107 20 60 1.6 3.2 0.00 0.00 0.00 66 1021.7
20210517222558 20 34 4.8 9.7 0.00 0.00 0.00 65 1022.1
20210517222052 20 47 4.8 4.8 0.00 0.00 0.00 65 1022.1
20210517221550 20 71 1.6 1.6 0.00 0.00 0.00 64 1021.7
20210517221044 20 76 6.4 8.0 0.00 0.00 0.00 63 1021.7
20210517220543 20 87 3.2 3.2 0.00 0.00 0.00 64 1021.7
20210517220042 20 104 1.6 3.2 0.00 0.00 0.00 63 1021.7
20210517215537 20 132 4.8 8.0 0.00 0.00 0.00 62 1022.1
20210517215032 20 80 4.8 9.7 0.00 0.00 0.00 63 1022.1
20210517214528 21 65 6.4 9.7 0.00 0.00 0.00 63 1022.1
20210517214019 20 69 3.2 8.0 0.00 0.00 0.00 63 1021.7
20210517213517 20 89 8.0 12.9 0.00 0.00 0.00 63 1021.3
20210517213015 20 72 3.2 3.2 0.00 0.00 0.00 63 1021.7
20210517212513 20 68 4.8 8.0 0.00 0.00 0.00 62 1021.7
20210517212008 20 74 3.2 4.8 0.00 0.00 0.00 63 1021.7
20210517211502 20 75 3.2 4.8 0.00 0.00 0.00 62 1021.7
20210517210959 20 79 3.2 4.8 0.00 0.00 0.00 63 1021.7
20210517210458 20 66 1.6 3.2 0.00 0.00 0.00 63 1021.7
20210517205953 20 89 3.2 4.8 0.00 0.00 0.00 62 1021.7
20210517205444 21 137 4.8 8.0 0.00 0.00 0.00 61 1021.7
20210517204937 20 98 1.6 3.2 0.00 0.00 0.00 61 1021.7
20210517204437 20 70 0.0 0.0 0.00 0.00 0.00 63 1021.7
20210517203936 20 113 1.6 1.6 0.00 0.00 0.00 62 1021.7
20210517203435 20 73 1.6 1.6 0.00 0.00 0.00 62 1021.7
20210517202931 20 76 4.8 4.8 0.00 0.00 0.00 61 1021.7